Time;durP1;ratioP1;P1;durP2;ratioP2;P2;SDS_P1;SDS_P2;PMS_P1;PMS_P2;Temp;Humidity;BMP_temperature;BMP_pressure;BME280_temperature;BME280_humidity;BME280_pressure;Samples;Min_cycle;Max_cycle;Signal;HPM_P1;HPM_P2
2023/09/15 00:01:02;;;;;;;7.47;4.30;;;11.00;99.90;;;;;;5052678;28;20957;-58
2023/09/15 00:03:29;;;;;;;5.90;4.23;;;11.00;99.90;;;;;;5052655;28;20532;-58
2023/09/15 00:05:57;;;;;;;7.30;4.30;;;11.00;99.90;;;;;;5052891;28;20443;-59
2023/09/15 00:08:24;;;;;;;8.43;4.37;;;11.00;99.90;;;;;;5052932;28;20435;-59
2023/09/15 00:10:51;;;;;;;5.70;4.00;;;10.90;99.90;;;;;;5052802;28;20446;-58
2023/09/15 00:13:18;;;;;;;6.33;3.80;;;10.90;99.90;;;;;;5052737;28;20487;-58
2023/09/15 00:15:49;;;;;;;5.33;3.87;;;10.90;99.90;;;;;;5052753;28;20447;-58
2023/09/15 00:18:16;;;;;;;11.30;5.67;;;10.90;99.90;;;;;;5052827;28;20488;-58
2023/09/15 00:20:43;;;;;;;6.87;3.90;;;10.90;99.90;;;;;;5052834;28;20446;-58
2023/09/15 00:23:11;;;;;;;12.83;4.23;;;10.90;99.90;;;;;;5052836;28;20467;-58
2023/09/15 00:25:38;;;;;;;6.93;4.10;;;10.80;99.90;;;;;;5052896;28;20444;-58
2023/09/15 00:28:09;;;;;;;6.20;3.80;;;10.80;99.90;;;;;;5054996;28;20448;-58
2023/09/15 00:30:37;;;;;;;4.10;3.33;;;10.80;99.90;;;;;;5056596;28;20434;-58
2023/09/15 00:33:05;;;;;;;5.07;3.60;;;10.80;99.90;;;;;;5056532;28;20541;-58
2023/09/15 00:35:32;;;;;;;4.30;3.90;;;10.80;99.90;;;;;;5056952;28;20446;-59
2023/09/15 00:37:59;;;;;;;7.47;5.23;;;10.80;99.90;;;;;;5056821;28;20486;-59
2023/09/15 00:40:28;;;;;;;6.93;4.15;;;10.80;99.90;;;;;;5056888;28;20447;-58
2023/09/15 00:42:55;;;;;;;6.43;4.40;;;10.80;99.90;;;;;;5056641;28;20294;-58
2023/09/15 00:45:22;;;;;;;4.80;3.60;;;10.70;99.90;;;;;;5056698;28;20436;-58
2023/09/15 00:47:52;;;;;;;6.20;3.70;;;10.70;99.90;;;;;;5056742;28;20428;-58
2023/09/15 00:50:22;;;;;;;9.73;3.83;;;10.70;99.90;;;;;;5057770;28;20444;-58
2023/09/15 00:52:52;;;;;;;5.53;3.77;;;10.70;99.90;;;;;;5056168;28;20465;-58
2023/09/15 00:55:21;;;;;;;6.90;3.87;;;10.70;99.90;;;;;;5056994;28;20461;-58
2023/09/15 00:57:51;;;;;;;4.90;3.70;;;10.70;99.90;;;;;;5056325;28;20574;-58
2023/09/15 01:00:19;;;;;;;4.40;3.40;;;10.70;99.90;;;;;;5056433;28;20443;-59
2023/09/15 01:02:47;;;;;;;5.00;3.97;;;10.70;99.90;;;;;;5056094;28;20467;-57
2023/09/15 01:05:20;;;;;;;5.47;4.13;;;10.70;99.90;;;;;;5056404;28;20805;-57
2023/09/15 01:07:48;;;;;;;7.47;4.37;;;10.70;99.90;;;;;;5056572;28;20443;-57
2023/09/15 01:10:15;;;;;;;4.43;3.53;;;10.70;99.90;;;;;;5056463;28;20539;-58
2023/09/15 01:12:44;;;;;;;4.78;3.63;;;10.60;99.90;;;;;;5055901;28;20989;-57
2023/09/15 01:15:12;;;;;;;4.10;3.70;;;10.60;99.90;;;;;;5055918;28;20690;-57
2023/09/15 01:17:46;;;;;;;10.37;4.10;;;10.60;99.90;;;;;;5055921;28;21023;-57
2023/09/15 01:20:21;;;;;;;4.37;3.97;;;10.60;99.90;;;;;;5056407;28;20424;-58
2023/09/15 01:23:21;;;;;;;11.27;4.37;;;10.60;99.90;;;;;;5056695;28;20509;-58
2023/09/15 01:26:19;;;;;;;6.43;3.83;;;10.60;99.90;;;;;;5056299;28;20930;-58
2023/09/15 01:29:18;;;;;;;3.87;3.47;;;10.60;99.90;;;;;;5057352;28;20754;-58
2023/09/15 01:31:47;;;;;;;6.83;3.70;;;10.60;99.90;;;;;;5055824;28;20474;-58
2023/09/15 01:34:16;;;;;;;6.70;3.87;;;10.60;99.90;;;;;;5055929;28;20447;-58
2023/09/15 01:36:44;;;;;;;6.73;4.90;;;10.50;99.90;;;;;;5055886;28;20809;-58
2023/09/15 01:39:11;;;;;;;5.20;3.95;;;10.50;99.90;;;;;;5055369;28;20445;-58
2023/09/15 01:41:38;;;;;;;7.53;4.40;;;10.50;99.90;;;;;;5055962;28;20760;-58
2023/09/15 01:44:05;;;;;;;6.50;4.20;;;10.50;99.90;;;;;;5055917;28;20435;-57
2023/09/15 01:46:31;;;;;;;7.00;4.27;;;10.50;99.90;;;;;;5056398;28;20439;-58
2023/09/15 01:49:01;;;;;;;5.70;3.73;;;10.50;99.90;;;;;;5057362;28;20441;-58
2023/09/15 01:51:29;;;;;;;7.87;5.30;;;10.50;99.90;;;;;;5056992;28;20471;-57
2023/09/15 01:53:56;;;;;;;5.07;4.33;;;10.50;99.90;;;;;;5056810;28;20968;-57
2023/09/15 01:56:27;;;;;;;5.28;3.80;;;10.40;99.90;;;;;;5056927;28;20475;-58
2023/09/15 01:58:54;;;;;;;5.95;3.42;;;10.40;99.90;;;;;;5056030;28;20276;-57
2023/09/15 02:01:20;;;;;;;7.20;4.43;;;10.40;99.90;;;;;;5056057;28;20222;-58
2023/09/15 02:03:48;;;;;;;6.18;4.13;;;10.40;99.90;;;;;;5056131;28;20444;-57
2023/09/15 02:06:16;;;;;;;4.70;3.73;;;10.40;99.90;;;;;;5056814;28;20210;-57
2023/09/15 02:08:43;;;;;;;9.93;3.90;;;10.40;99.90;;;;;;5056686;28;20472;-58
2023/09/15 02:11:10;;;;;;;6.00;3.93;;;10.40;99.90;;;;;;5056420;28;20543;-58
2023/09/15 02:13:38;;;;;;;5.20;4.30;;;10.30;99.90;;;;;;5054766;28;20444;-58
2023/09/15 02:16:05;;;;;;;6.47;5.32;;;10.40;99.90;;;;;;5055060;28;20452;-58
2023/09/15 02:18:33;;;;;;;6.10;3.92;;;10.30;99.90;;;;;;5054872;28;20217;-58
2023/09/15 02:21:00;;;;;;;6.40;4.67;;;10.30;99.90;;;;;;5054937;28;20208;-58
2023/09/15 02:23:28;;;;;;;10.30;4.30;;;10.30;99.90;;;;;;5055271;28;20452;-58
2023/09/15 02:25:55;;;;;;;5.10;3.90;;;10.30;99.90;;;;;;5054909;28;20448;-58
2023/09/15 02:28:22;;;;;;;5.30;4.80;;;10.30;99.90;;;;;;5055387;28;20197;-58
2023/09/15 02:30:49;;;;;;;5.60;3.90;;;10.20;99.90;;;;;;5054891;28;20443;-57
2023/09/15 02:33:16;;;;;;;6.63;4.10;;;10.30;99.90;;;;;;5062796;22;20309;-62
2023/09/15 02:35:43;;;;;;;6.20;4.53;;;10.30;99.90;;;;;;5034971;28;20433;-61
2023/09/15 02:38:10;;;;;;;6.13;5.05;;;10.20;99.90;;;;;;5035059;28;20226;-63
2023/09/15 02:40:38;;;;;;;8.40;4.38;;;10.20;99.90;;;;;;5034747;28;20203;-61
2023/09/15 02:43:04;;;;;;;5.55;3.75;;;10.20;99.90;;;;;;5034641;28;20270;-61
2023/09/15 02:45:35;;;;;;;6.55;4.05;;;10.20;99.90;;;;;;5034801;28;20209;-61
2023/09/15 02:48:02;;;;;;;7.13;4.77;;;10.20;99.90;;;;;;5034892;28;20269;-61
2023/09/15 02:50:29;;;;;;;6.43;4.20;;;10.20;99.90;;;;;;5033828;28;20504;-61
2023/09/15 02:52:55;;;;;;;6.80;4.35;;;10.20;99.90;;;;;;5034988;28;20484;-62
2023/09/15 02:55:22;;;;;;;6.20;4.55;;;10.10;99.90;;;;;;5034615;28;20199;-62
2023/09/15 02:57:52;;;;;;;4.35;3.95;;;10.10;99.90;;;;;;5034434;28;20245;-61
2023/09/15 03:00:20;;;;;;;7.18;3.72;;;10.10;99.90;;;;;;5035246;28;20190;-60
2023/09/15 03:02:47;;;;;;;5.80;4.63;;;10.10;99.90;;;;;;5034806;28;20226;-61
2023/09/15 03:05:13;;;;;;;4.85;4.05;;;10.10;99.90;;;;;;5034625;28;20448;-61
2023/09/15 03:07:40;;;;;;;10.20;4.40;;;10.10;99.90;;;;;;5034132;28;20198;-61
2023/09/15 03:10:08;;;;;;;4.95;3.90;;;10.10;99.90;;;;;;5034348;28;20578;-61
2023/09/15 03:12:35;;;;;;;6.60;4.95;;;10.10;99.90;;;;;;5034560;28;20218;-61
2023/09/15 03:15:05;;;;;;;5.93;4.90;;;10.10;99.90;;;;;;5034114;28;20213;-62
2023/09/15 03:17:32;;;;;;;6.03;3.97;;;10.10;99.90;;;;;;5033927;28;20460;-61
2023/09/15 03:19:59;;;;;;;4.97;3.90;;;10.10;99.90;;;;;;5034296;28;20448;-61
2023/09/15 03:22:27;;;;;;;5.68;4.10;;;10.10;99.90;;;;;;5034380;28;20461;-62
2023/09/15 03:24:54;;;;;;;8.65;4.88;;;10.10;99.90;;;;;;5034010;28;20209;-61
2023/09/15 03:27:21;;;;;;;7.50;4.60;;;10.10;99.90;;;;;;5034022;28;20203;-61
2023/09/15 03:29:47;;;;;;;7.05;4.82;;;10.10;99.90;;;;;;5033807;28;20620;-61
2023/09/15 03:32:16;;;;;;;10.80;4.53;;;10.10;99.90;;;;;;5033419;28;20738;-62
2023/09/15 03:34:43;;;;;;;6.35;4.53;;;10.00;99.90;;;;;;5033378;28;20973;-61
2023/09/15 03:37:10;;;;;;;6.50;4.40;;;10.10;99.90;;;;;;5033650;28;20304;-61
2023/09/15 03:39:36;;;;;;;6.05;4.70;;;10.10;99.90;;;;;;5033955;28;20206;-61
2023/09/15 03:42:03;;;;;;;8.15;4.80;;;10.10;99.90;;;;;;5033761;28;20226;-61
2023/09/15 03:44:30;;;;;;;5.13;4.53;;;10.10;99.90;;;;;;5033174;28;20710;-62
2023/09/15 03:46:57;;;;;;;11.52;4.60;;;10.10;99.90;;;;;;5033404;28;20961;-61
2023/09/15 03:49:25;;;;;;;4.40;3.50;;;10.10;99.90;;;;;;5033808;28;20198;-61
2023/09/15 03:51:52;;;;;;;5.82;5.22;;;10.10;99.90;;;;;;5033466;28;20469;-62
2023/09/15 03:54:19;;;;;;;6.13;4.97;;;10.00;99.90;;;;;;5033533;28;20202;-61
2023/09/15 03:56:46;;;;;;;6.00;4.27;;;10.00;99.90;;;;;;5033614;28;20449;-61
2023/09/15 03:59:13;;;;;;;6.80;4.25;;;10.00;99.90;;;;;;5033433;28;20488;-61
2023/09/15 04:01:40;;;;;;;7.00;4.68;;;10.00;99.90;;;;;;5063124;22;20222;-59
2023/09/15 04:04:07;;;;;;;5.90;4.80;;;10.00;99.90;;;;;;5052998;28;20202;-59
2023/09/15 04:06:35;;;;;;;5.60;4.70;;;10.00;99.90;;;;;;5053177;28;20587;-59
2023/09/15 04:12:12;;;;;;;7.57;4.93;;;10.00;99.90;;;;;;5091576;27;20961;-59
2023/09/15 04:14:39;;;;;;;5.13;4.38;;;9.90;99.90;;;;;;5091751;28;20206;-60
2023/09/15 04:17:06;;;;;;;10.32;4.72;;;9.90;99.90;;;;;;5091121;28;20273;-60
2023/09/15 04:19:33;;;;;;;6.85;4.82;;;9.90;99.90;;;;;;5090470;28;20211;-61
2023/09/15 04:21:59;;;;;;;4.65;4.25;;;9.90;99.90;;;;;;5090576;28;20217;-59
2023/09/15 04:24:26;;;;;;;6.28;4.88;;;9.90;99.90;;;;;;5092119;28;20217;-59
2023/09/15 04:26:53;;;;;;;6.38;5.47;;;9.90;99.90;;;;;;5091483;28;20204;-59
2023/09/15 04:29:21;;;;;;;7.80;5.28;;;9.90;99.90;;;;;;5091855;28;20293;-59
2023/09/15 04:31:48;;;;;;;5.88;5.22;;;9.90;99.90;;;;;;5092089;28;20685;-60
2023/09/15 04:34:15;;;;;;;7.45;5.10;;;9.90;99.90;;;;;;5092055;28;20588;-60
2023/09/15 04:36:42;;;;;;;6.72;4.60;;;9.80;99.90;;;;;;5091389;28;20204;-59
2023/09/15 04:39:09;;;;;;;6.13;4.30;;;9.80;99.90;;;;;;5091206;28;20266;-60
2023/09/15 04:41:36;;;;;;;8.32;5.20;;;9.80;99.90;;;;;;5091262;28;20221;-60
2023/09/15 04:44:03;;;;;;;6.05;4.25;;;9.80;99.90;;;;;;5091199;28;20201;-58
2023/09/15 04:46:31;;;;;;;4.50;4.07;;;9.80;99.90;;;;;;5091578;28;20201;-60
2023/09/15 04:48:58;;;;;;;9.23;5.07;;;9.80;99.90;;;;;;5091490;28;20203;-59
2023/09/15 04:51:24;;;;;;;8.50;5.43;;;9.80;99.90;;;;;;5090675;28;20224;-60
2023/09/15 04:53:51;;;;;;;7.28;5.25;;;9.90;99.90;;;;;;5090748;28;20434;-59
2023/09/15 04:56:18;;;;;;;14.98;5.25;;;9.90;99.90;;;;;;5090466;28;20295;-60
2023/09/15 04:58:45;;;;;;;5.57;5.03;;;9.90;99.90;;;;;;5091350;28;20226;-59
2023/09/15 05:01:16;;;;;;;6.80;4.65;;;9.90;99.90;;;;;;5091656;28;20229;-59
2023/09/15 05:03:44;;;;;;;5.57;4.60;;;9.90;99.90;;;;;;5091921;28;20182;-59
2023/09/15 05:06:11;;;;;;;8.10;5.00;;;9.90;99.90;;;;;;5091477;28;20468;-59
2023/09/15 05:08:38;;;;;;;7.80;4.97;;;10.00;99.90;;;;;;5091233;28;20201;-59
2023/09/15 05:11:05;;;;;;;6.00;5.22;;;10.00;99.90;;;;;;5091664;28;20292;-58
2023/09/15 05:13:32;;;;;;;8.40;5.45;;;10.00;99.90;;;;;;5099626;28;20200;-58
2023/09/15 05:15:58;;;;;;;6.80;4.80;;;10.00;99.90;;;;;;5099025;28;20209;-58
2023/09/15 05:18:25;;;;;;;6.82;5.40;;;10.10;99.90;;;;;;5093076;28;20209;-59
2023/09/15 05:20:53;;;;;;;8.97;5.20;;;10.10;99.90;;;;;;5091030;28;20261;-59
2023/09/15 05:23:20;;;;;;;6.65;5.30;;;10.10;99.90;;;;;;5077408;28;20439;-59
2023/09/15 05:25:49;;;;;;;7.93;5.65;;;10.20;99.90;;;;;;5076620;28;20206;-59
2023/09/15 05:28:16;;;;;;;6.60;4.90;;;10.20;99.90;;;;;;5076826;28;20204;-59
2023/09/15 05:30:43;;;;;;;5.60;5.05;;;10.30;99.90;;;;;;5076476;28;20503;-57
2023/09/15 05:33:10;;;;;;;8.60;5.13;;;10.30;99.90;;;;;;5076300;28;20229;-58
2023/09/15 05:35:37;;;;;;;6.25;5.40;;;10.40;99.90;;;;;;5075280;28;20794;-60
2023/09/15 05:38:05;;;;;;;7.20;5.40;;;10.40;99.90;;;;;;5075585;28;20205;-59
2023/09/15 05:40:32;;;;;;;9.50;5.10;;;10.40;99.90;;;;;;5075776;28;20442;-60
2023/09/15 05:42:59;;;;;;;7.07;5.43;;;10.50;99.90;;;;;;5075655;28;20843;-59
2023/09/15 05:45:25;;;;;;;5.73;4.73;;;10.60;99.90;;;;;;5076263;28;20446;-58
2023/09/15 05:47:52;;;;;;;7.67;4.80;;;10.60;99.90;;;;;;5077421;28;20439;-59
2023/09/15 05:50:19;;;;;;;10.10;5.50;;;10.60;99.90;;;;;;5076113;28;20447;-59
2023/09/15 05:52:46;;;;;;;7.85;5.28;;;10.70;99.90;;;;;;5075855;28;20529;-60
2023/09/15 05:55:15;;;;;;;8.73;5.07;;;10.80;99.90;;;;;;5075755;28;20227;-60
2023/09/15 05:57:41;;;;;;;5.37;4.87;;;10.80;99.90;;;;;;5075283;28;20824;-59
2023/09/15 06:00:09;;;;;;;6.13;4.47;;;10.90;99.90;;;;;;5075255;28;20959;-59
2023/09/15 06:02:36;;;;;;;14.83;7.87;;;11.00;99.90;;;;;;5075487;28;20451;-58
2023/09/15 06:05:03;;;;;;;7.00;5.07;;;11.00;99.90;;;;;;5075118;28;20499;-58
2023/09/15 06:07:30;;;;;;;5.80;4.47;;;11.10;99.90;;;;;;5074835;28;20435;-59
2023/09/15 06:09:56;;;;;;;5.60;4.40;;;11.20;99.90;;;;;;5075050;28;20443;-59
2023/09/15 06:12:24;;;;;;;6.00;4.43;;;11.30;99.90;;;;;;5076142;28;20484;-57
2023/09/15 06:14:51;;;;;;;5.47;4.30;;;11.40;99.90;;;;;;5076435;28;20442;-59
2023/09/15 06:17:18;;;;;;;6.47;4.60;;;11.40;99.90;;;;;;5076601;28;20443;-59
2023/09/15 06:19:45;;;;;;;4.73;4.20;;;11.50;99.90;;;;;;5076388;28;20446;-60
2023/09/15 06:22:12;;;;;;;5.43;3.80;;;11.60;99.90;;;;;;5076036;28;20456;-59
2023/09/15 06:24:39;;;;;;;5.50;4.40;;;11.70;99.90;;;;;;5076340;28;20508;-58
2023/09/15 06:27:05;;;;;;;6.97;4.60;;;11.80;99.90;;;;;;5076909;28;20446;-59
2023/09/15 06:29:34;;;;;;;6.73;4.27;;;11.80;99.90;;;;;;5076766;28;20519;-59
2023/09/15 06:32:00;;;;;;;5.70;4.33;;;11.90;99.90;;;;;;5076278;28;20511;-58
2023/09/15 06:34:27;;;;;;;7.27;4.57;;;12.00;99.90;;;;;;5074611;28;20437;-60
2023/09/15 06:36:54;;;;;;;6.87;4.03;;;12.10;99.90;;;;;;5075644;28;20528;-61
2023/09/15 06:39:23;;;;;;;7.93;4.87;;;12.20;99.90;;;;;;5075166;28;20448;-58
2023/09/15 06:41:50;;;;;;;7.63;4.80;;;12.30;99.90;;;;;;5074922;28;20551;-59
2023/09/15 06:44:17;;;;;;;5.93;4.30;;;12.30;99.90;;;;;;5074625;28;20451;-59
2023/09/15 06:46:45;;;;;;;5.00;4.03;;;12.50;99.90;;;;;;5074906;28;20444;-59
2023/09/15 06:49:12;;;;;;;7.27;4.20;;;12.50;99.90;;;;;;5075013;28;20441;-60
2023/09/15 06:51:40;;;;;;;8.20;4.87;;;12.60;99.90;;;;;;5075073;28;20486;-60
2023/09/15 06:54:07;;;;;;;6.13;4.27;;;12.70;99.90;;;;;;5074998;28;20547;-60
2023/09/15 06:56:33;;;;;;;6.43;3.90;;;12.80;99.90;;;;;;5075149;28;20436;-60
2023/09/15 06:59:00;;;;;;;4.80;3.53;;;12.90;99.90;;;;;;5074998;28;20454;-58
2023/09/15 07:01:27;;;;;;;10.10;4.00;;;13.00;99.90;;;;;;5076043;28;20464;-60
2023/09/15 07:03:55;;;;;;;7.13;4.10;;;13.10;99.90;;;;;;5075245;28;20458;-59
2023/09/15 07:06:22;;;;;;;5.70;4.10;;;13.10;99.90;;;;;;5075834;28;20451;-60
2023/09/15 07:08:49;;;;;;;7.43;4.13;;;13.20;99.90;;;;;;5074461;28;20966;-60
2023/09/15 07:11:16;;;;;;;6.00;4.30;;;13.30;99.90;;;;;;5074336;28;20531;-60
2023/09/15 07:13:43;;;;;;;8.33;3.70;;;13.40;99.90;;;;;;5075399;28;20441;-59
2023/09/15 07:16:10;;;;;;;6.60;4.10;;;13.50;99.90;;;;;;5075539;28;20453;-60
2023/09/15 07:18:37;;;;;;;4.73;3.80;;;13.60;99.90;;;;;;5076059;28;20539;-60
2023/09/15 07:21:05;;;;;;;7.30;3.80;;;13.70;99.90;;;;;;5075211;28;20441;-60
2023/09/15 07:23:32;;;;;;;5.43;3.80;;;13.70;99.90;;;;;;5075457;28;20450;-59
2023/09/15 07:25:59;;;;;;;7.60;3.63;;;13.80;99.90;;;;;;5074419;28;20452;-59
2023/09/15 07:28:26;;;;;;;3.80;3.40;;;14.00;99.90;;;;;;5074312;28;20449;-62
2023/09/15 07:30:52;;;;;;;6.30;4.20;;;14.10;99.90;;;;;;5074230;28;20443;-59
2023/09/15 07:33:19;;;;;;;6.40;3.80;;;14.20;99.90;;;;;;5075114;28;20537;-59
2023/09/15 07:35:46;;;;;;;11.03;4.23;;;14.20;99.90;;;;;;5074271;28;21025;-58
2023/09/15 07:38:14;;;;;;;6.37;3.70;;;14.30;99.90;;;;;;5074361;28;20451;-60
2023/09/15 07:40:41;;;;;;;7.20;3.97;;;14.30;99.90;;;;;;5074289;28;20438;-59
2023/09/15 07:43:07;;;;;;;4.73;2.87;;;14.40;99.90;;;;;;5074784;28;20492;-60
2023/09/15 07:45:34;;;;;;;9.83;3.87;;;14.50;99.90;;;;;;5073898;28;20960;-60
2023/09/15 07:48:02;;;;;;;4.90;3.60;;;14.60;99.90;;;;;;5073622;28;20982;-60
2023/09/15 07:50:33;;;;;;;5.63;3.70;;;14.70;99.90;;;;;;5074168;28;20454;-60
2023/09/15 07:53:00;;;;;;;4.77;3.40;;;14.70;99.90;;;;;;5074641;28;20496;-59
2023/09/15 07:55:28;;;;;;;7.03;4.13;;;14.80;99.90;;;;;;5074328;28;20446;-60
2023/09/15 07:57:54;;;;;;;7.93;4.10;;;15.00;99.90;;;;;;5074226;28;20447;-60
2023/09/15 08:00:21;;;;;;;8.70;4.10;;;15.00;99.90;;;;;;5073836;28;20450;-59
2023/09/15 08:02:48;;;;;;;9.23;4.70;;;15.20;99.90;;;;;;5074560;28;20458;-59
2023/09/15 08:05:15;;;;;;;4.80;3.67;;;15.20;99.90;;;;;;5074171;28;20442;-61
2023/09/15 08:07:44;;;;;;;7.00;3.77;;;15.30;99.90;;;;;;5074197;28;20441;-59
2023/09/15 08:10:11;;;;;;;4.50;3.40;;;15.50;99.90;;;;;;5073908;28;20465;-60
2023/09/15 08:12:39;;;;;;;5.87;3.70;;;15.50;99.90;;;;;;5074655;28;20496;-59
2023/09/15 08:15:07;;;;;;;5.83;3.20;;;15.60;99.90;;;;;;5074685;28;20448;-60
2023/09/15 08:17:34;;;;;;;5.77;3.73;;;15.70;99.90;;;;;;5074365;28;20472;-57
2023/09/15 08:20:03;;;;;;;8.80;4.10;;;15.80;99.90;;;;;;5074440;28;20455;-60
2023/09/15 08:22:32;;;;;;;8.23;3.80;;;15.90;99.90;;;;;;5073974;28;20466;-60
2023/09/15 08:25:01;;;;;;;6.37;3.83;;;16.00;99.90;;;;;;5076159;28;20874;-60
2023/09/15 08:27:28;;;;;;;7.07;4.47;;;16.10;99.90;;;;;;5075328;28;20472;-61
2023/09/15 08:29:56;;;;;;;4.80;3.40;;;16.20;99.90;;;;;;5075011;28;20440;-61
2023/09/15 08:32:23;;;;;;;6.50;3.57;;;16.20;99.90;;;;;;5074482;28;20581;-61
2023/09/15 08:34:49;;;;;;;6.30;3.57;;;16.40;99.90;;;;;;5074620;28;20448;-59
2023/09/15 08:37:16;;;;;;;5.70;3.23;;;16.40;99.90;;;;;;5074476;28;20448;-60
2023/09/15 08:39:45;;;;;;;6.63;3.63;;;16.60;99.90;;;;;;5075211;28;20448;-60
2023/09/15 08:42:17;;;;;;;5.23;3.50;;;16.60;99.90;;;;;;5075728;28;20468;-60
2023/09/15 08:44:44;;;;;;;5.67;3.63;;;16.70;99.90;;;;;;5075967;28;20425;-61
2023/09/15 08:47:12;;;;;;;5.20;3.40;;;16.90;99.90;;;;;;5074421;28;20442;-60
2023/09/15 08:49:40;;;;;;;8.53;3.73;;;17.00;99.90;;;;;;5074211;28;20536;-60
2023/09/15 08:52:08;;;;;;;6.43;3.20;;;17.00;99.90;;;;;;5074259;28;20503;-61
2023/09/15 08:54:37;;;;;;;6.93;3.30;;;17.10;99.90;;;;;;5074701;28;20455;-60
2023/09/15 08:57:04;;;;;;;8.27;3.13;;;17.30;99.90;;;;;;5074583;28;20939;-61
2023/09/15 08:59:32;;;;;;;5.53;3.53;;;17.30;99.90;;;;;;5078298;28;20446;-61
2023/09/15 09:01:59;;;;;;;6.57;4.00;;;17.40;99.90;;;;;;5077930;28;20462;-60
2023/09/15 09:04:27;;;;;;;4.73;3.10;;;17.50;99.90;;;;;;5077227;28;20436;-60
2023/09/15 09:06:55;;;;;;;5.47;3.47;;;17.50;99.90;;;;;;5078133;28;20475;-60
2023/09/15 09:09:24;;;;;;;5.83;3.70;;;17.60;99.90;;;;;;5076617;28;20441;-61
2023/09/15 09:11:51;;;;;;;4.07;3.67;;;17.70;99.90;;;;;;5076789;28;20489;-59
2023/09/15 09:14:18;;;;;;;3.93;3.53;;;17.70;99.90;;;;;;5080119;28;20454;-59
2023/09/15 09:16:46;;;;;;;4.27;3.23;;;17.80;99.90;;;;;;5080943;28;20448;-61
2023/09/15 09:19:14;;;;;;;5.13;3.87;;;17.80;99.90;;;;;;5078945;28;20457;-61
2023/09/15 09:21:42;;;;;;;5.33;4.10;;;17.90;99.90;;;;;;5076583;28;20457;-60
2023/09/15 09:24:10;;;;;;;7.83;3.77;;;18.10;99.90;;;;;;5076935;28;20437;-61
2023/09/15 09:26:37;;;;;;;5.20;3.63;;;18.10;99.90;;;;;;5076239;28;20449;-61
2023/09/15 09:29:04;;;;;;;6.90;3.70;;;18.30;99.60;;;;;;5077510;28;20453;-61
2023/09/15 09:31:31;;;;;;;7.57;5.57;;;18.30;99.20;;;;;;5076610;28;20466;-62
2023/09/15 09:33:59;;;;;;;6.17;3.83;;;18.40;98.90;;;;;;5077352;28;20458;-61
2023/09/15 09:36:26;;;;;;;5.10;3.53;;;18.50;98.40;;;;;;5077686;28;20441;-61
2023/09/15 09:38:55;;;;;;;5.27;2.90;;;18.50;98.10;;;;;;5077878;28;20452;-62
2023/09/15 09:41:24;;;;;;;5.10;3.30;;;18.60;97.80;;;;;;5076846;28;20461;-60
2023/09/15 09:43:51;;;;;;;7.60;3.27;;;18.70;97.40;;;;;;5077447;28;20500;-61
2023/09/15 09:46:21;;;;;;;7.07;3.70;;;18.80;96.90;;;;;;5076500;28;20452;-60
2023/09/15 09:48:48;;;;;;;5.70;3.70;;;18.90;96.30;;;;;;5077271;28;20827;-61
2023/09/15 09:51:16;;;;;;;5.10;3.20;;;19.00;95.70;;;;;;5077000;28;20476;-60
2023/09/15 09:53:43;;;;;;;7.00;3.80;;;19.10;95.10;;;;;;5077710;28;20817;-60
2023/09/15 09:56:11;;;;;;;4.20;3.50;;;19.20;94.50;;;;;;5077183;28;20452;-60
2023/09/15 09:58:39;;;;;;;4.87;3.23;;;19.20;94.00;;;;;;5076133;28;20445;-60
2023/09/15 10:01:06;;;;;;;4.30;3.30;;;19.20;93.50;;;;;;5076820;28;20457;-60
2023/09/15 10:03:33;;;;;;;4.60;3.40;;;19.30;93.10;;;;;;5076648;28;20437;-57
2023/09/15 10:06:00;;;;;;;5.47;4.27;;;19.40;92.40;;;;;;5076265;28;20446;-61
2023/09/15 10:08:27;;;;;;;4.90;3.03;;;19.40;91.80;;;;;;5075958;28;20795;-59
2023/09/15 10:10:56;;;;;;;6.50;4.53;;;19.50;91.40;;;;;;5076989;28;20483;-61
2023/09/15 10:13:24;;;;;;;4.53;3.43;;;19.60;90.80;;;;;;5076560;28;20485;-59
2023/09/15 10:15:53;;;;;;;7.80;3.50;;;19.70;90.50;;;;;;5075584;28;20442;-60
2023/09/15 10:18:20;;;;;;;4.50;3.73;;;19.70;90.10;;;;;;5076492;28;20453;-61
2023/09/15 10:20:50;;;;;;;4.13;3.70;;;19.80;89.10;;;;;;5077946;28;20445;-61
2023/09/15 10:23:17;;;;;;;6.37;3.80;;;19.90;88.20;;;;;;5076730;28;20442;-60
2023/09/15 10:25:48;;;;;;;4.50;3.30;;;20.00;87.70;;;;;;5075305;28;20442;-61
2023/09/15 10:28:17;;;;;;;7.43;3.70;;;20.10;86.80;;;;;;5076318;28;20428;-62
2023/09/15 10:30:46;;;;;;;5.47;4.00;;;20.20;85.50;;;;;;5076079;28;20454;-59
2023/09/15 10:33:13;;;;;;;5.30;3.50;;;20.30;84.70;;;;;;5077262;28;20931;-58
2023/09/15 10:35:40;;;;;;;8.57;3.90;;;20.40;83.90;;;;;;5075548;28;20434;-60
2023/09/15 10:38:08;;;;;;;8.30;3.40;;;20.40;83.20;;;;;;5074764;28;20472;-61
2023/09/15 10:40:45;;;;;;;6.20;3.27;;;20.50;83.00;;;;;;5075022;28;20939;-60
2023/09/15 10:43:13;;;;;;;5.50;3.50;;;20.60;82.70;;;;;;5074951;28;20545;-60
2023/09/15 10:45:39;;;;;;;5.00;3.50;;;20.70;82.10;;;;;;5075845;28;20441;-60
2023/09/15 10:48:08;;;;;;;4.73;3.60;;;20.70;80.90;;;;;;5074759;28;20536;-61
2023/09/15 10:50:38;;;;;;;3.73;3.03;;;20.80;80.20;;;;;;5075359;28;20436;-61
2023/09/15 10:53:09;;;;;;;4.67;3.23;;;20.80;78.90;;;;;;5075119;28;20481;-61
2023/09/15 10:55:36;;;;;;;7.17;3.70;;;20.80;77.90;;;;;;5075926;28;20500;-60
2023/09/15 10:58:04;;;;;;;9.83;3.43;;;20.80;77.40;;;;;;5075814;28;20441;-61
2023/09/15 11:00:31;;;;;;;5.30;3.43;;;20.90;76.80;;;;;;5075556;28;20599;-59
2023/09/15 11:02:58;;;;;;;3.70;2.90;;;20.90;75.80;;;;;;5075181;28;20469;-60
2023/09/15 11:05:27;;;;;;;5.40;3.97;;;21.00;75.00;;;;;;5075057;28;20822;-61
2023/09/15 11:07:56;;;;;;;6.87;3.30;;;21.10;74.40;;;;;;5075161;28;20445;-59
2023/09/15 11:10:28;;;;;;;4.20;2.83;;;21.10;74.10;;;;;;5074338;28;20452;-60
2023/09/15 11:13:02;;;;;;;5.67;3.10;;;21.20;73.60;;;;;;5074266;28;20484;-61
2023/09/15 11:15:29;;;;;;;3.90;3.10;;;21.30;73.20;;;;;;5074918;28;20429;-60
2023/09/15 11:17:56;;;;;;;5.67;3.03;;;21.30;72.90;;;;;;5075533;28;20441;-61
2023/09/15 11:20:23;;;;;;;5.03;3.33;;;21.40;72.80;;;;;;5075534;28;20445;-60
2023/09/15 11:22:56;;;;;;;3.60;3.03;;;21.40;72.40;;;;;;5075939;28;20458;-61
2023/09/15 11:25:23;;;;;;;5.13;3.10;;;21.50;72.00;;;;;;5075861;28;20436;-60
2023/09/15 11:27:51;;;;;;;7.40;3.80;;;21.50;71.40;;;;;;5075177;28;20448;-61
2023/09/15 11:30:18;;;;;;;5.33;3.40;;;21.50;71.00;;;;;;5074986;28;20451;-60
2023/09/15 11:32:45;;;;;;;7.03;3.27;;;21.50;71.00;;;;;;5074674;28;20501;-61
2023/09/15 11:35:12;;;;;;;7.60;3.20;;;21.60;70.80;;;;;;5074832;28;20437;-61
2023/09/15 11:37:40;;;;;;;6.10;3.53;;;21.60;70.60;;;;;;5075122;28;20439;-60
2023/09/15 11:40:19;;;;;;;4.53;3.33;;;21.70;70.20;;;;;;5074606;28;20816;-60
2023/09/15 11:42:52;;;;;;;5.90;3.80;;;21.80;69.90;;;;;;5075663;28;20552;-59
2023/09/15 11:45:20;;;;;;;3.87;2.97;;;21.90;69.40;;;;;;5074882;28;20435;-61
2023/09/15 11:47:48;;;;;;;5.27;3.10;;;21.90;69.10;;;;;;5074121;28;20897;-61
2023/09/15 11:50:16;;;;;;;5.90;3.60;;;22.00;68.50;;;;;;5075555;28;20437;-61
2023/09/15 11:52:43;;;;;;;4.87;3.20;;;22.00;67.90;;;;;;5074163;28;20598;-60
2023/09/15 11:55:19;;;;;;;4.27;3.20;;;22.10;67.60;;;;;;5074747;28;20445;-61
2023/09/15 11:57:46;;;;;;;7.23;3.60;;;22.00;67.00;;;;;;5073905;28;20425;-61
2023/09/15 12:00:15;;;;;;;5.10;3.40;;;22.00;66.80;;;;;;5074028;28;20449;-61
2023/09/15 12:02:42;;;;;;;5.13;3.60;;;22.00;66.50;;;;;;5075587;28;20461;-60
2023/09/15 12:05:09;;;;;;;4.93;3.70;;;22.00;66.50;;;;;;5074335;28;20466;-61
2023/09/15 12:07:37;;;;;;;5.20;2.93;;;22.00;66.20;;;;;;5074194;28;20447;-61
2023/09/15 12:10:05;;;;;;;6.90;3.10;;;22.00;66.00;;;;;;5074164;28;20441;-63
2023/09/15 12:12:33;;;;;;;5.10;3.77;;;22.00;65.70;;;;;;5074134;28;20465;-60
2023/09/15 12:15:04;;;;;;;5.50;4.13;;;22.00;65.70;;;;;;5076579;28;20525;-60
2023/09/15 12:17:31;;;;;;;3.80;2.90;;;22.10;65.50;;;;;;5076998;28;20426;-60
2023/09/15 12:19:59;;;;;;;3.50;3.20;;;22.20;65.20;;;;;;5075126;28;20470;-61
2023/09/15 12:22:31;;;;;;;7.10;3.60;;;22.30;64.90;;;;;;5073887;28;20507;-61
2023/09/15 12:24:59;;;;;;;4.47;3.00;;;22.40;64.40;;;;;;5074108;28;20776;-60
2023/09/15 12:27:25;;;;;;;5.00;3.37;;;22.40;64.10;;;;;;5075180;28;20786;-61
2023/09/15 12:29:54;;;;;;;4.30;3.10;;;22.50;64.20;;;;;;5075105;28;20430;-60
2023/09/15 12:32:26;;;;;;;4.37;2.80;;;22.50;63.90;;;;;;5076491;28;20454;-60
2023/09/15 12:34:54;;;;;;;5.83;3.37;;;22.60;63.70;;;;;;5078966;28;20742;-60
2023/09/15 12:37:21;;;;;;;5.63;3.70;;;22.60;63.40;;;;;;5078713;28;20581;-61
2023/09/15 12:39:47;;;;;;;4.97;4.00;;;22.70;63.50;;;;;;5078087;28;20443;-61
2023/09/15 12:42:14;;;;;;;6.00;3.57;;;22.80;63.60;;;;;;5078834;28;20461;-61
2023/09/15 12:44:41;;;;;;;8.13;5.07;;;22.80;63.50;;;;;;5078978;28;20440;-62
2023/09/15 12:47:09;;;;;;;6.00;3.90;;;22.70;63.40;;;;;;5077652;28;20448;-60
2023/09/15 12:49:36;;;;;;;4.77;3.37;;;22.60;63.30;;;;;;5077253;28;20433;-61
2023/09/15 12:52:03;;;;;;;4.80;3.53;;;22.50;64.00;;;;;;5078129;28;20548;-59
2023/09/15 12:54:30;;;;;;;5.33;3.67;;;22.50;63.60;;;;;;5077727;28;20474;-61